createdAt,value
2023-02-19T00:01:46.902Z,5.65
2023-02-19T00:04:19.712Z,6.72
2023-02-19T00:06:47.621Z,6.32
2023-02-19T00:09:16.384Z,6.25
2023-02-19T00:11:43.891Z,6.00
2023-02-19T00:14:14.657Z,6.28
2023-02-19T00:16:42.261Z,6.32
2023-02-19T00:19:14.285Z,6.20
2023-02-19T00:21:41.571Z,5.10
2023-02-19T00:24:16.756Z,4.88
2023-02-19T00:26:45.089Z,5.05
2023-02-19T00:29:17.786Z,4.90
2023-02-19T00:31:46.401Z,4.63
2023-02-19T00:34:14.465Z,5.45
2023-02-19T00:36:42.676Z,5.38
2023-02-19T00:39:12.308Z,5.20
2023-02-19T00:41:39.431Z,4.30
2023-02-19T00:44:08.726Z,4.85
2023-02-19T00:46:39.290Z,4.47
2023-02-19T00:49:07.902Z,4.05
2023-02-19T00:51:38.365Z,4.20
2023-02-19T00:54:06.598Z,3.88
2023-02-19T00:56:34.382Z,3.70
2023-02-19T00:59:01.757Z,4.20
2023-02-19T01:01:29.019Z,3.72
2023-02-19T01:03:56.545Z,3.80
2023-02-19T01:06:23.746Z,3.63
2023-02-19T01:08:51.038Z,3.80
2023-02-19T01:11:20.556Z,3.13
2023-02-19T01:13:47.971Z,3.28
2023-02-19T01:16:24.852Z,3.33
2023-02-19T01:18:52.643Z,3.10
2023-02-19T01:21:22.284Z,3.58
2023-02-19T01:23:51.220Z,4.35
2023-02-19T01:26:22.395Z,3.58
2023-02-19T01:28:49.780Z,3.20
2023-02-19T01:31:22.028Z,3.08
2023-02-19T01:33:54.803Z,3.15
2023-02-19T01:36:22.126Z,3.30
2023-02-19T01:38:49.872Z,3.28
2023-02-19T01:41:21.262Z,3.17
2023-02-19T01:44:07.803Z,3.25
2023-02-19T01:46:40.195Z,3.20
2023-02-19T01:49:23.607Z,2.97
2023-02-19T01:54:23.322Z,2.47
2023-02-19T01:56:50.558Z,3.50
2023-02-19T01:59:18.570Z,3.88
2023-02-19T02:01:45.728Z,3.75
2023-02-19T02:04:14.193Z,3.30
2023-02-19T02:06:48.970Z,3.40
2023-02-19T02:09:35.873Z,5.78
2023-02-19T02:12:03.342Z,3.88
2023-02-19T02:14:34.757Z,5.53
2023-02-19T02:17:04.984Z,4.00
2023-02-19T02:20:02.362Z,4.50
2023-02-19T02:22:35.287Z,4.03
2023-02-19T02:25:46.615Z,4.40
2023-02-19T02:28:21.173Z,5.65
2023-02-19T02:30:51.800Z,4.72
2023-02-19T02:33:30.660Z,3.75
2023-02-19T02:36:05.912Z,7.50
2023-02-19T02:38:36.836Z,4.32
2023-02-19T02:41:04.999Z,4.43
2023-02-19T02:43:32.651Z,5.00
2023-02-19T02:45:59.966Z,4.90
2023-02-19T02:48:47.373Z,4.60
2023-02-19T02:51:38.852Z,4.85
2023-02-19T02:57:01.336Z,5.35
2023-02-19T02:59:34.793Z,4.78
2023-02-19T03:02:20.033Z,5.22
2023-02-19T03:05:28.167Z,3.60
2023-02-19T03:08:11.694Z,4.20
2023-02-19T03:10:50.884Z,3.85
2023-02-19T03:13:56.543Z,4.35
2023-02-19T03:16:46.267Z,3.92
2023-02-19T03:19:22.071Z,4.35
2023-02-19T03:22:03.398Z,4.20
2023-02-19T03:24:52.595Z,3.83
2023-02-19T03:27:21.141Z,4.28
2023-02-19T03:29:55.342Z,3.15
2023-02-19T03:32:27.683Z,3.88
2023-02-19T03:35:26.147Z,3.55
2023-02-19T03:38:05.600Z,3.55
2023-02-19T03:40:55.944Z,3.55
2023-02-19T03:43:36.046Z,3.70
2023-02-19T03:46:06.178Z,3.85
2023-02-19T03:48:40.450Z,3.45
2023-02-19T03:52:07.368Z,3.35
2023-02-19T03:54:39.724Z,2.85
2023-02-19T03:57:15.090Z,2.90
2023-02-19T04:00:04.926Z,3.53
2023-02-19T04:02:42.124Z,2.88
2023-02-19T04:05:15.050Z,2.88
2023-02-19T04:07:45.855Z,3.40
2023-02-19T04:10:16.276Z,2.53
2023-02-19T04:12:50.222Z,3.05
2023-02-19T04:15:21.892Z,3.20
2023-02-19T04:17:59.054Z,3.20
2023-02-19T04:20:28.455Z,3.22
2023-02-19T04:22:56.355Z,3.70
2023-02-19T04:25:24.229Z,2.85
2023-02-19T04:27:51.831Z,2.97
2023-02-19T04:30:19.003Z,3.55
2023-02-19T04:32:46.223Z,2.83
2023-02-19T04:35:13.386Z,3.33
2023-02-19T04:37:40.557Z,3.22
2023-02-19T04:40:08.301Z,3.08
2023-02-19T04:42:35.617Z,2.83
2023-02-19T04:45:02.781Z,3.22
2023-02-19T04:47:32.023Z,3.13
2023-02-19T04:49:59.086Z,3.90
2023-02-19T04:52:26.457Z,4.43
2023-02-19T04:54:53.476Z,4.68
2023-02-19T04:57:20.818Z,5.15
2023-02-19T04:59:47.872Z,4.18
2023-02-19T05:02:15.245Z,3.58
2023-02-19T05:04:42.286Z,4.30
2023-02-19T05:07:09.616Z,3.70
2023-02-19T05:09:36.730Z,4.53
2023-02-19T05:12:03.988Z,3.78
2023-02-19T05:14:31.072Z,3.53
2023-02-19T05:16:58.724Z,4.18
2023-02-19T05:19:25.773Z,3.88
2023-02-19T05:21:53.068Z,3.95
2023-02-19T05:24:20.308Z,4.18
2023-02-19T05:26:48.318Z,4.82
2023-02-19T05:29:15.476Z,4.20
2023-02-19T05:31:42.901Z,4.15
2023-02-19T05:34:10.093Z,4.03
2023-02-19T05:36:37.410Z,5.75
2023-02-19T05:39:06.323Z,4.35
2023-02-19T05:41:33.969Z,4.80
2023-02-19T05:44:01.058Z,4.85
2023-02-19T05:46:30.094Z,4.88
2023-02-19T05:48:58.456Z,5.03
2023-02-19T05:51:27.144Z,4.50
2023-02-19T05:53:54.978Z,5.47
2023-02-19T05:56:28.497Z,5.63
2023-02-19T05:58:55.760Z,6.07
2023-02-19T06:01:25.374Z,6.22
2023-02-19T06:03:54.082Z,6.20
2023-02-19T06:06:23.547Z,6.18
2023-02-19T06:08:50.981Z,6.25
2023-02-19T06:11:18.737Z,5.95
2023-02-19T06:13:46.053Z,6.05
2023-02-19T06:16:13.440Z,6.55
2023-02-19T06:18:41.288Z,6.18
2023-02-19T06:21:11.604Z,6.55
2023-02-19T06:23:39.810Z,6.60
2023-02-19T06:26:22.317Z,6.28
2023-02-19T06:28:50.780Z,6.68
2023-02-19T06:31:19.070Z,6.55
2023-02-19T06:33:46.244Z,7.20
2023-02-19T06:36:16.339Z,6.55
2023-02-19T06:38:44.154Z,6.60
2023-02-19T06:41:13.062Z,6.80
2023-02-19T06:43:40.700Z,7.43
2023-02-19T06:46:08.596Z,7.47
2023-02-19T06:48:36.075Z,6.43
2023-02-19T06:51:03.499Z,6.70
2023-02-19T06:53:30.843Z,6.70
2023-02-19T06:55:59.313Z,6.53
2023-02-19T06:58:27.024Z,7.10
2023-02-19T07:00:54.454Z,6.03
2023-02-19T07:03:22.037Z,6.60
2023-02-19T07:05:49.689Z,6.25
2023-02-19T07:08:19.622Z,6.90
2023-02-19T07:10:55.498Z,6.63
2023-02-19T07:13:23.527Z,7.03
2023-02-19T07:15:52.227Z,7.30
2023-02-19T07:18:19.463Z,7.18
2023-02-19T07:20:46.880Z,7.47
2023-02-19T07:23:13.984Z,6.60
2023-02-19T07:25:41.399Z,6.13
2023-02-19T07:28:08.530Z,6.80
2023-02-19T07:30:35.969Z,7.43
2023-02-19T07:33:03.321Z,6.68
2023-02-19T07:35:30.684Z,6.65
2023-02-19T07:37:57.860Z,5.82
2023-02-19T07:40:25.159Z,6.20
2023-02-19T07:42:52.325Z,6.72
2023-02-19T07:45:19.576Z,6.47
2023-02-19T07:47:46.730Z,6.65
2023-02-19T07:50:14.227Z,7.07
2023-02-19T07:52:41.486Z,6.03
2023-02-19T07:55:08.938Z,6.60
2023-02-19T07:57:36.044Z,6.82
2023-02-19T08:00:04.160Z,6.70
2023-02-19T08:02:58.033Z,7.55
2023-02-19T08:05:25.986Z,7.47
2023-02-19T08:07:53.117Z,7.53
2023-02-19T08:10:39.458Z,6.40
2023-02-19T08:13:24.891Z,7.47
2023-02-19T08:15:55.133Z,7.07
2023-02-19T08:18:25.744Z,7.00
2023-02-19T08:20:54.333Z,9.68
2023-02-19T08:23:21.815Z,8.85
2023-02-19T08:25:51.306Z,9.25
2023-02-19T08:28:19.456Z,10.07
2023-02-19T08:30:47.777Z,9.82
2023-02-19T08:33:17.270Z,9.77
2023-02-19T08:35:44.885Z,8.25
2023-02-19T08:38:13.452Z,9.57
2023-02-19T08:40:41.196Z,8.10
2023-02-19T08:43:10.778Z,10.55
2023-02-19T08:45:39.758Z,10.50
2023-02-19T08:48:07.594Z,11.10
2023-02-19T08:50:35.328Z,8.75
2023-02-19T08:53:03.452Z,8.55
2023-02-19T08:55:30.735Z,9.50
2023-02-19T08:57:58.024Z,9.73
2023-02-19T09:00:25.781Z,10.98
2023-02-19T09:02:52.866Z,8.90
2023-02-19T09:05:20.396Z,8.77
2023-02-19T09:07:47.496Z,8.65
2023-02-19T09:10:15.004Z,8.85
2023-02-19T09:12:42.154Z,9.00
2023-02-19T09:15:09.875Z,9.88
2023-02-19T09:17:37.098Z,9.38
2023-02-19T09:20:04.710Z,8.43
2023-02-19T09:22:31.789Z,9.30
2023-02-19T09:24:59.093Z,8.30
2023-02-19T09:27:26.253Z,8.15
2023-02-19T09:29:54.811Z,9.00
2023-02-19T09:32:22.215Z,8.52
2023-02-19T09:34:49.816Z,8.23
2023-02-19T09:37:16.931Z,9.50
2023-02-19T09:39:44.298Z,8.20
2023-02-19T09:42:18.339Z,7.45
2023-02-19T09:44:48.486Z,7.82
2023-02-19T09:47:22.036Z,7.70
2023-02-19T09:49:53.063Z,6.88
2023-02-19T09:52:25.630Z,6.03
2023-02-19T09:54:57.895Z,7.30
2023-02-19T09:57:26.528Z,6.70
2023-02-19T10:00:00.437Z,7.13
2023-02-19T10:02:30.252Z,6.45
2023-02-19T10:04:58.767Z,9.57
2023-02-19T10:07:47.326Z,10.40
2023-02-19T10:10:14.709Z,5.88
2023-02-19T10:12:46.942Z,6.25
2023-02-19T10:15:22.326Z,5.78
2023-02-19T10:17:49.462Z,5.80
2023-02-19T10:20:26.680Z,6.60
2023-02-19T10:23:08.641Z,5.22
2023-02-19T10:25:36.770Z,5.20
2023-02-19T10:28:04.728Z,5.72
2023-02-19T10:30:35.057Z,5.10
2023-02-19T10:33:08.879Z,5.05
2023-02-19T10:35:38.293Z,4.63
2023-02-19T10:38:06.791Z,4.13
2023-02-19T10:40:34.251Z,6.20
2023-02-19T10:43:04.261Z,5.68
2023-02-19T10:45:35.483Z,5.47
2023-02-19T10:48:03.276Z,5.80
2023-02-19T10:50:44.556Z,5.32
2023-02-19T10:53:23.145Z,4.97
2023-02-19T10:56:07.319Z,8.18
2023-02-19T10:58:34.642Z,4.90
2023-02-19T11:01:22.843Z,5.18
2023-02-19T11:04:13.912Z,5.03
2023-02-19T11:06:41.372Z,4.68
2023-02-19T11:09:24.342Z,5.55
2023-02-19T11:14:23.920Z,5.35
2023-02-19T11:16:56.607Z,4.68
2023-02-19T11:19:32.718Z,4.40
2023-02-19T11:22:01.046Z,4.07
2023-02-19T11:24:37.566Z,3.92
2023-02-19T11:27:07.631Z,4.75
2023-02-19T11:29:35.504Z,4.28
2023-02-19T11:32:26.313Z,3.88
2023-02-19T11:35:23.766Z,4.30
2023-02-19T11:37:58.692Z,4.53
2023-02-19T11:40:53.562Z,4.30
2023-02-19T11:43:58.151Z,4.13
2023-02-19T11:46:34.102Z,4.25
2023-02-19T11:49:39.321Z,4.13
2023-02-19T11:52:44.271Z,3.90
2023-02-19T11:55:25.855Z,4.43
2023-02-19T11:58:01.881Z,4.07
2023-02-19T12:00:36.109Z,6.82
2023-02-19T12:03:12.232Z,6.05
2023-02-19T12:05:42.630Z,4.35
2023-02-19T12:08:15.108Z,4.20
2023-02-19T12:11:20.169Z,4.22
2023-02-19T12:14:06.309Z,5.03
2023-02-19T12:16:46.941Z,5.22
2023-02-19T12:19:24.261Z,4.85
2023-02-19T12:22:16.703Z,6.63
2023-02-19T12:24:50.968Z,5.78
2023-02-19T12:27:43.153Z,5.20
2023-02-19T12:30:48.441Z,5.40
2023-02-19T12:33:29.596Z,5.70
2023-02-19T12:36:13.808Z,7.32
2023-02-19T12:38:55.052Z,6.00
2023-02-19T12:41:26.927Z,5.47
2023-02-19T12:44:02.656Z,3.97
2023-02-19T12:46:33.728Z,5.85
2023-02-19T12:49:07.476Z,5.35
2023-02-19T12:51:55.318Z,4.63
2023-02-19T12:54:28.454Z,3.47
2023-02-19T12:57:01.602Z,3.42
2023-02-19T12:59:37.298Z,3.97
2023-02-19T13:02:18.810Z,3.33
2023-02-19T13:05:12.046Z,3.15
2023-02-19T13:08:12.086Z,5.45
2023-02-19T13:10:44.698Z,5.00
2023-02-19T13:13:32.342Z,5.00
2023-02-19T13:16:03.275Z,3.85
2023-02-19T13:18:37.409Z,4.45
2023-02-19T13:21:06.383Z,4.57
2023-02-19T13:23:54.016Z,3.67
2023-02-19T13:26:42.958Z,2.78
2023-02-19T13:29:47.675Z,2.92
2023-02-19T13:32:21.203Z,2.97
2023-02-19T13:35:11.606Z,4.43
2023-02-19T13:37:39.267Z,3.47
2023-02-19T13:40:19.959Z,4.82
2023-02-19T13:42:59.173Z,2.58
2023-02-19T13:45:39.926Z,3.45
2023-02-19T13:48:26.170Z,2.83
2023-02-19T13:51:17.108Z,2.97
2023-02-19T13:53:50.465Z,3.75
2023-02-19T13:59:23.401Z,3.00
2023-02-19T14:01:53.290Z,3.40
2023-02-19T14:04:25.000Z,3.97
2023-02-19T14:07:11.282Z,2.20
2023-02-19T14:09:41.360Z,1.75
2023-02-19T14:12:15.074Z,3.05
2023-02-19T14:14:51.547Z,1.90
2023-02-19T14:17:33.296Z,2.42
2023-02-19T14:20:02.769Z,2.50
2023-02-19T14:22:52.932Z,2.20
2023-02-19T14:25:29.491Z,2.90
2023-02-19T14:28:15.438Z,2.28
2023-02-19T14:30:45.810Z,2.28
2023-02-19T14:33:18.860Z,2.67
2023-02-19T14:35:48.238Z,3.00
2023-02-19T14:38:32.631Z,2.58
2023-02-19T14:41:00.996Z,6.40
2023-02-19T14:43:28.845Z,6.45
2023-02-19T14:46:02.979Z,5.50
2023-02-19T14:48:49.495Z,4.75
2023-02-19T14:51:31.221Z,3.45
2023-02-19T14:53:59.259Z,2.63
2023-02-19T14:56:29.323Z,4.93
2023-02-19T14:59:29.788Z,5.18
2023-02-19T15:02:03.578Z,4.60
2023-02-19T15:04:35.927Z,4.88
2023-02-19T15:07:06.832Z,4.20
2023-02-19T15:09:37.569Z,5.50
2023-02-19T15:12:05.646Z,5.50
2023-02-19T15:14:33.591Z,3.08
2023-02-19T15:17:04.323Z,5.65
2023-02-19T15:19:35.106Z,2.97
2023-02-19T15:22:02.681Z,2.83
2023-02-19T15:24:30.277Z,4.05
2023-02-19T15:26:57.838Z,3.78
2023-02-19T15:29:27.173Z,4.60
2023-02-19T15:31:57.611Z,4.53
2023-02-19T15:34:26.868Z,4.25
2023-02-19T15:36:59.773Z,3.15
2023-02-19T15:39:36.199Z,4.22
2023-02-19T15:42:06.082Z,4.43
2023-02-19T15:45:02.555Z,2.33
2023-02-19T15:47:59.322Z,2.38
2023-02-19T15:50:35.150Z,2.25
2023-02-19T15:53:13.110Z,2.17
2023-02-19T15:55:46.013Z,2.10
2023-02-19T16:00:53.370Z,3.58
2023-02-19T16:03:22.910Z,2.60
2023-02-19T16:06:19.617Z,3.25
2023-02-19T16:09:04.585Z,3.78
2023-02-19T16:11:54.983Z,3.47
2023-02-19T16:14:31.685Z,6.05
2023-02-19T16:17:12.979Z,7.05
2023-02-19T16:19:46.923Z,6.32
2023-02-19T16:22:19.863Z,5.35
2023-02-19T16:27:39.103Z,4.63
2023-02-19T16:30:10.076Z,4.20
2023-02-19T16:32:37.287Z,7.53
2023-02-19T16:35:06.291Z,7.57
2023-02-19T16:38:01.687Z,8.05
2023-02-19T16:40:35.372Z,10.60
2023-02-19T16:45:32.877Z,7.55
2023-02-19T16:48:00.718Z,4.65
2023-02-19T16:50:28.312Z,9.88
2023-02-19T16:52:57.688Z,9.68
2023-02-19T16:55:25.894Z,9.73
2023-02-19T16:57:53.396Z,6.07
2023-02-19T17:00:27.968Z,14.45
2023-02-19T17:02:58.784Z,8.10
2023-02-19T17:05:28.992Z,4.63
2023-02-19T17:08:04.105Z,6.03
2023-02-19T17:10:42.950Z,4.72
2023-02-19T17:13:15.424Z,4.65
2023-02-19T17:15:43.028Z,4.38
2023-02-19T17:18:11.907Z,3.55
2023-02-19T17:20:40.899Z,3.53
2023-02-19T17:23:08.917Z,5.43
2023-02-19T17:25:36.422Z,3.95
2023-02-19T17:28:03.605Z,3.60
2023-02-19T17:30:33.983Z,3.75
2023-02-19T17:33:01.707Z,5.50
2023-02-19T17:35:29.592Z,4.50
2023-02-19T17:37:57.058Z,3.47
2023-02-19T17:40:33.273Z,4.25
2023-02-19T17:43:01.904Z,4.65
2023-02-19T17:45:29.903Z,3.92
2023-02-19T17:47:57.312Z,5.85
2023-02-19T17:50:29.152Z,3.40
2023-02-19T17:52:56.448Z,4.78
2023-02-19T17:55:24.108Z,3.83
2023-02-19T17:57:52.302Z,4.80
2023-02-19T18:00:26.922Z,3.08
2023-02-19T18:02:54.700Z,3.55
2023-02-19T18:05:22.741Z,2.47
2023-02-19T18:07:50.611Z,2.63
2023-02-19T18:10:20.726Z,2.72
2023-02-19T18:12:47.977Z,3.33
2023-02-19T18:15:17.671Z,10.63
2023-02-19T18:17:45.015Z,3.58
2023-02-19T18:20:17.469Z,3.33
2023-02-19T18:22:44.944Z,10.73
2023-02-19T18:25:13.746Z,3.75
2023-02-19T18:27:41.197Z,3.38
2023-02-19T18:30:09.932Z,2.85
2023-02-19T18:32:37.420Z,5.28
2023-02-19T18:35:06.373Z,2.88
2023-02-19T18:37:34.072Z,2.50
2023-02-19T18:40:02.431Z,2.20
2023-02-19T18:42:30.336Z,2.67
2023-02-19T18:44:58.238Z,3.72
2023-02-19T18:47:26.637Z,5.40
2023-02-19T18:49:56.106Z,3.85
2023-02-19T18:52:25.680Z,3.53
2023-02-19T18:54:55.208Z,5.78
2023-02-19T18:57:25.170Z,4.00
2023-02-19T18:59:53.322Z,4.10
2023-02-19T19:02:20.923Z,4.40
2023-02-19T19:04:51.627Z,4.40
2023-02-19T19:07:20.449Z,3.83
2023-02-19T19:09:48.537Z,3.50
2023-02-19T19:12:16.273Z,5.10
2023-02-19T19:14:44.895Z,3.67
2023-02-19T19:17:25.077Z,3.45
2023-02-19T19:19:52.974Z,4.10
2023-02-19T19:22:22.830Z,3.38
2023-02-19T19:24:50.255Z,3.08
2023-02-19T19:27:20.251Z,3.50
2023-02-19T19:29:49.693Z,3.38
2023-02-19T19:32:17.172Z,4.43
2023-02-19T19:34:45.112Z,3.63
2023-02-19T19:37:12.845Z,2.88
2023-02-19T19:39:40.421Z,3.05
2023-02-19T19:42:09.397Z,3.85
2023-02-19T19:44:37.600Z,2.88
2023-02-19T19:47:05.099Z,3.72
2023-02-19T19:49:33.432Z,3.63
2023-02-19T19:52:01.421Z,2.97
2023-02-19T19:54:29.403Z,4.10
2023-02-19T19:56:56.766Z,3.58
2023-02-19T19:59:24.288Z,3.75
2023-02-19T20:01:57.298Z,4.97
2023-02-19T20:04:25.922Z,3.55
2023-02-19T20:06:54.449Z,3.85
2023-02-19T20:09:25.688Z,3.33
2023-02-19T20:11:53.849Z,3.63
2023-02-19T20:14:22.991Z,3.80
2023-02-19T20:16:50.737Z,3.45
2023-02-19T20:19:19.475Z,3.58
2023-02-19T20:21:52.975Z,3.83
2023-02-19T20:24:26.178Z,2.95
2023-02-19T20:26:54.155Z,3.67
2023-02-19T20:29:21.534Z,3.70
2023-02-19T20:31:50.131Z,4.60
2023-02-19T20:34:18.326Z,2.63
2023-02-19T20:36:47.571Z,2.95
2023-02-19T20:39:16.347Z,3.38
2023-02-19T20:41:47.804Z,3.22
2023-02-19T20:44:15.845Z,2.40
2023-02-19T20:46:45.150Z,3.58
2023-02-19T20:49:13.330Z,3.78
2023-02-19T20:51:45.533Z,3.70
2023-02-19T20:54:13.254Z,3.65
2023-02-19T20:56:48.524Z,3.05
2023-02-19T20:59:16.721Z,2.42
2023-02-19T21:01:44.032Z,2.75
2023-02-19T21:04:11.874Z,3.10
2023-02-19T21:06:39.718Z,3.90
2023-02-19T21:09:07.448Z,3.60
2023-02-19T21:11:34.884Z,3.15
2023-02-19T21:14:02.335Z,3.00
2023-02-19T21:16:31.165Z,2.80
2023-02-19T21:19:00.125Z,3.25
2023-02-19T21:21:27.445Z,3.08
2023-02-19T21:23:57.206Z,2.15
2023-02-19T21:26:25.399Z,2.45
2023-02-19T21:28:53.505Z,2.58
2023-02-19T21:31:22.424Z,2.40
2023-02-19T21:33:50.798Z,2.70
2023-02-19T21:36:18.687Z,2.45
2023-02-19T21:38:46.596Z,2.97
2023-02-19T21:41:13.813Z,2.90
2023-02-19T21:43:41.191Z,3.33
2023-02-19T21:46:08.329Z,3.10
2023-02-19T21:48:35.631Z,2.75
2023-02-19T21:51:03.994Z,2.70
2023-02-19T21:53:31.665Z,3.05
2023-02-19T21:55:59.174Z,3.17
2023-02-19T21:58:26.684Z,3.75
2023-02-19T22:00:54.235Z,3.40
2023-02-19T22:03:21.857Z,3.85
2023-02-19T22:05:49.012Z,3.70
2023-02-19T22:08:17.535Z,4.85
2023-02-19T22:10:44.852Z,5.03
2023-02-19T22:13:12.249Z,4.82
2023-02-19T22:15:39.875Z,5.68
2023-02-19T22:18:07.326Z,5.32
2023-02-19T22:20:34.862Z,4.65
2023-02-19T22:23:02.374Z,5.10
2023-02-19T22:25:29.524Z,4.90
2023-02-19T22:27:58.415Z,4.97
2023-02-19T22:30:26.852Z,5.07
2023-02-19T22:32:54.536Z,5.53
2023-02-19T22:35:21.949Z,5.38
2023-02-19T22:37:49.345Z,4.97
2023-02-19T22:40:16.684Z,5.45
2023-02-19T22:42:44.077Z,4.78
2023-02-19T22:45:12.634Z,4.65
2023-02-19T22:47:40.173Z,3.67
2023-02-19T22:50:08.250Z,4.70
2023-02-19T22:52:35.743Z,4.43
2023-02-19T22:55:03.837Z,3.65
2023-02-19T22:57:31.253Z,3.35
2023-02-19T22:59:58.495Z,3.20
2023-02-19T23:02:25.900Z,3.95
2023-02-19T23:04:53.107Z,3.17
2023-02-19T23:07:20.618Z,3.72
2023-02-19T23:09:47.701Z,3.40
2023-02-19T23:12:15.143Z,3.20
2023-02-19T23:14:42.169Z,3.75
2023-02-19T23:17:09.706Z,3.15
2023-02-19T23:19:38.011Z,3.13
2023-02-19T23:22:05.949Z,3.47
2023-02-19T23:24:33.091Z,4.10
2023-02-19T23:27:00.692Z,3.80
2023-02-19T23:29:29.776Z,3.42
2023-02-19T23:31:57.351Z,3.60
2023-02-19T23:34:24.527Z,3.70
2023-02-19T23:36:52.629Z,4.13
2023-02-19T23:39:21.474Z,3.90
2023-02-19T23:41:51.606Z,3.90
2023-02-19T23:44:19.617Z,3.42
2023-02-19T23:46:48.264Z,3.97
2023-02-19T23:49:15.383Z,4.22
2023-02-19T23:51:42.816Z,3.72
2023-02-19T23:54:09.853Z,3.38
2023-02-19T23:56:37.402Z,3.45
2023-02-19T23:59:04.707Z,3.83
